Time;durP1;ratioP1;P1;durP2;ratioP2;P2;SDS_P1;SDS_P2;PMS_P1;PMS_P2;Temp;Humidity;BMP_temperature;BMP_pressure;BME280_temperature;BME280_humidity;BME280_pressure;Samples;Min_cycle;Max_cycle;Signal;HPM_P1;HPM_P2
2021/03/30 04:15:41;;;;;;;11.23;4.80;;;;;;;3.35;79.64;100343.69;5711872;23;21183;-69
2021/03/30 04:18:07;;;;;;;10.48;5.43;;;;;;;3.34;79.40;100337.69;4899300;29;20040;-69
2021/03/30 04:20:32;;;;;;;9.18;5.20;;;;;;;3.34;79.22;100337.69;4899449;29;20048;-69
2021/03/30 04:22:59;;;;;;;11.93;4.75;;;;;;;3.27;79.63;100340.84;4899267;29;20482;-69
2021/03/30 04:25:25;;;;;;;9.85;4.32;;;;;;;3.25;79.63;100342.50;4898012;29;20032;-68
2021/03/30 04:27:52;;;;;;;8.05;4.35;;;;;;;3.38;79.41;100353.16;4898069;29;20025;-69
2021/03/30 04:30:18;;;;;;;8.15;5.00;;;;;;;3.30;79.46;100345.22;4876961;29;20041;-75
2021/03/30 04:32:43;;;;;;;9.77;4.18;;;;;;;3.30;79.40;100351.22;4874753;29;20025;-75
2021/03/30 04:35:10;;;;;;;9.65;4.70;;;;;;;3.19;79.98;100347.41;4875465;29;20112;-75
2021/03/30 04:37:35;;;;;;;12.65;5.80;;;;;;;3.13;80.42;100347.13;4880854;29;20032;-73
2021/03/30 04:40:01;;;;;;;7.10;4.22;;;;;;;3.16;80.18;100347.28;4875391;29;20044;-73
2021/03/30 04:42:26;;;;;;;6.78;4.97;;;;;;;3.06;80.51;100347.75;4875146;29;20089;-73
2021/03/30 04:44:52;;;;;;;8.80;4.72;;;;;;;3.02;80.51;100353.56;4875229;29;20065;-73
2021/03/30 04:47:18;;;;;;;9.43;5.72;;;;;;;2.98;80.88;100356.81;4875494;29;20041;-74
2021/03/30 04:49:43;;;;;;;10.70;4.97;;;;;;;3.08;80.42;100359.78;4873948;29;20044;-75
2021/03/30 04:52:10;;;;;;;9.68;5.05;;;;;;;3.03;80.55;100355.31;4874260;29;20029;-75
2021/03/30 04:54:35;;;;;;;14.88;5.10;;;;;;;3.00;80.39;100360.31;4874450;29;21284;-75
2021/03/30 04:57:00;;;;;;;10.93;4.57;;;;;;;3.04;80.57;100362.16;4873543;29;20057;-75
2021/03/30 04:59:26;;;;;;;10.57;5.22;;;;;;;3.01;80.48;100362.06;4877326;29;20108;-75
2021/03/30 05:01:51;;;;;;;8.52;4.93;;;;;;;3.02;80.35;100363.81;4878506;29;20040;-75
2021/03/30 05:04:17;;;;;;;12.20;4.85;;;;;;;2.97;80.60;100371.31;4878583;29;20036;-74
2021/03/30 05:06:43;;;;;;;12.60;6.50;;;;;;;2.91;80.62;100372.78;4878658;29;20029;-75
2021/03/30 05:09:08;;;;;;;15.18;5.93;;;;;;;2.96;80.55;100372.13;4878452;29;20039;-73
2021/03/30 05:11:34;;;;;;;9.10;5.57;;;;;;;2.95;80.35;100374.59;4877903;29;21493;-74
2021/03/30 05:14:00;;;;;;;8.70;5.35;;;;;;;2.93;80.34;100373.69;4878418;29;20044;-75
2021/03/30 05:16:25;;;;;;;9.55;5.50;;;;;;;2.95;80.46;100377.16;4878339;29;20036;-75
2021/03/30 05:18:50;;;;;;;9.48;5.88;;;;;;;2.92;80.64;100382.19;4877982;29;20029;-75
2021/03/30 05:21:17;;;;;;;11.43;5.57;;;;;;;2.88;80.94;100380.31;4877771;29;20033;-75
2021/03/30 05:23:43;;;;;;;10.48;5.03;;;;;;;2.86;80.89;100376.84;4878431;29;20029;-75
2021/03/30 05:26:08;;;;;;;11.20;5.28;;;;;;;2.91;81.03;100380.44;4878015;29;20029;-75
2021/03/30 05:28:33;;;;;;;12.70;5.65;;;;;;;2.86;81.08;100376.84;4876647;29;20029;-75
2021/03/30 05:30:59;;;;;;;11.05;5.22;;;;;;;2.81;81.15;100377.53;4877699;29;20104;-74
2021/03/30 05:33:25;;;;;;;7.78;4.78;;;;;;;2.79;81.15;100380.84;4877677;29;20090;-73
2021/03/30 05:35:50;;;;;;;11.50;5.30;;;;;;;2.81;80.93;100377.53;4877837;29;20115;-73
2021/03/30 05:38:15;;;;;;;18.80;5.38;;;;;;;2.84;80.83;100377.63;4878065;29;20031;-73
2021/03/30 05:40:41;;;;;;;9.52;5.13;;;;;;;2.98;80.77;100377.28;4877738;29;20412;-73
2021/03/30 05:43:08;;;;;;;14.57;5.28;;;;;;;3.03;80.25;100386.03;4877493;29;20121;-73
2021/03/30 05:45:33;;;;;;;13.32;5.60;;;;;;;3.24;79.51;100381.72;4876400;29;20043;-73
2021/03/30 05:47:59;;;;;;;10.18;5.03;;;;;;;3.21;79.40;100380.72;4896807;29;20028;-73
2021/03/30 05:50:29;;;;;;;8.10;5.25;;;;;;;3.20;79.21;100379.88;4877744;29;21097;-73
2021/03/30 05:53:04;;;;;;;19.77;5.47;;;;;;;3.34;78.91;100381.25;4877352;29;20037;-73
2021/03/30 05:55:34;;;;;;;11.63;5.38;;;;;;;3.48;78.36;100380.84;4877551;29;20406;-73
2021/03/30 05:58:01;;;;;;;8.32;5.03;;;;;;;3.62;77.80;100384.78;4877328;29;20049;-73
2021/03/30 06:00:34;;;;;;;16.08;5.45;;;;;;;3.79;77.61;100382.84;4881233;29;20112;-73
2021/03/30 06:03:04;;;;;;;13.38;5.15;;;;;;;3.86;76.95;100390.78;4876755;29;20028;-73
2021/03/30 06:05:30;;;;;;;14.38;5.60;;;;;;;3.91;76.59;100390.94;4869411;29;20039;-73
2021/03/30 06:08:00;;;;;;;11.15;5.10;;;;;;;4.12;75.96;100381.44;4876491;29;20037;-73
2021/03/30 06:10:27;;;;;;;14.90;5.95;;;;;;;4.31;74.85;100380.34;4876442;29;20037;-73
2021/03/30 06:12:54;;;;;;;14.40;5.63;;;;;;;4.93;72.60;100382.28;4877231;29;20056;-74
2021/03/30 06:15:19;;;;;;;9.10;5.45;;;;;;;5.71;69.49;100376.84;4849987;29;20192;-73
2021/03/30 06:17:45;;;;;;;15.73;5.38;;;;;;;6.47;67.00;100378.84;4877545;29;20103;-73
2021/03/30 06:20:13;;;;;;;16.77;5.68;;;;;;;6.98;64.76;100382.59;4876657;29;20037;-73
2021/03/30 06:22:47;;;;;;;7.90;4.25;;;;;;;7.11;64.29;100374.31;4877037;29;20029;-73
2021/03/30 06:25:34;;;;;;;10.55;4.50;;;;;;;8.54;59.99;100370.13;4876153;29;21600;-73
2021/03/30 06:28:17;;;;;;;9.73;4.18;;;;;;;9.02;58.04;100365.69;4877008;29;20047;-73
2021/03/30 06:31:02;;;;;;;12.20;4.20;;;;;;;10.20;53.78;100371.34;4876951;29;20518;-73
2021/03/30 06:33:30;;;;;;;7.25;3.97;;;;;;;10.18;53.52;100373.06;4895226;29;20968;-73
2021/03/30 06:36:17;;;;;;;10.52;4.85;;;;;;;11.00;51.67;100368.56;4877360;29;20036;-74
2021/03/30 06:39:04;;;;;;;13.50;4.72;;;;;;;11.34;48.96;100381.69;4877812;29;20031;-74
2021/03/30 06:44:28;;;;;;;7.38;4.40;;;;;;;11.82;49.79;100375.00;4876116;29;20036;-74
2021/03/30 06:47:12;;;;;;;6.57;3.97;;;;;;;12.46;47.11;100375.06;4877064;29;20032;-73
2021/03/30 06:49:50;;;;;;;11.73;4.75;;;;;;;13.25;45.86;100368.06;4876707;29;20401;-74
2021/03/30 06:52:24;;;;;;;11.93;3.58;;;;;;;14.52;42.52;100368.22;4876571;29;20383;-74
2021/03/30 06:54:55;;;;;;;9.70;4.20;;;;;;;13.47;43.96;100366.25;4876486;29;20033;-74
2021/03/30 06:57:43;;;;;;;7.32;4.20;;;;;;;12.96;45.52;100373.28;4884656;29;20033;-74
2021/03/30 07:00:13;;;;;;;8.32;4.28;;;;;;;13.78;43.69;100365.22;4878248;29;20060;-74
2021/03/30 07:02:45;;;;;;;9.85;4.93;;;;;;;13.37;43.95;100363.66;4895852;29;20069;-74
2021/03/30 07:05:31;;;;;;;14.35;4.95;;;;;;;13.08;44.85;100361.13;4876767;29;20123;-74
2021/03/30 07:08:00;;;;;;;9.23;4.07;;;;;;;14.20;43.26;100355.38;4876187;29;20160;-74
2021/03/30 07:10:26;;;;;;;10.60;4.13;;;;;;;13.23;45.19;100360.25;4876320;29;20041;-74
2021/03/30 07:12:53;;;;;;;8.50;4.22;;;;;;;11.74;49.00;100366.28;4876362;29;20101;-74
2021/03/30 07:15:23;;;;;;;8.23;4.50;;;;;;;10.12;52.50;100370.44;4877136;29;20040;-73
2021/03/30 07:18:04;;;;;;;12.52;5.03;;;;;;;9.51;55.74;100374.09;4899402;29;20063;-74
2021/03/30 07:20:36;;;;;;;6.78;4.55;;;;;;;9.52;57.00;100365.50;4879850;29;20040;-74
2021/03/30 07:23:08;;;;;;;9.25;4.93;;;;;;;10.21;55.58;100366.22;4879980;29;20067;-73
2021/03/30 07:25:38;;;;;;;10.60;4.22;;;;;;;11.35;50.87;100367.88;4880418;29;21386;-74
2021/03/30 07:28:07;;;;;;;11.55;4.60;;;;;;;12.63;47.90;100356.03;4880461;29;20060;-73
2021/03/30 07:30:33;;;;;;;;;;;;;;;14.17;44.47;100345.00;4880021;29;20130;-74
2021/03/30 07:32:58;;;;;;;9.27;4.18;;;;;;;14.43;43.60;100350.00;4879692;29;20018;-75
2021/03/30 07:35:26;;;;;;;17.70;4.60;;;;;;;15.23;41.47;100349.22;4894600;29;20494;-74
2021/03/30 07:38:10;;;;;;;8.20;3.75;;;;;;;17.66;36.77;100343.47;4899498;29;20385;-75
2021/03/30 07:40:41;;;;;;;9.23;4.13;;;;;;;18.06;36.51;100342.59;4879667;29;20035;-75
2021/03/30 07:43:17;;;;;;;10.90;4.50;;;;;;;19.49;34.05;100337.13;4879329;29;20037;-75
2021/03/30 07:45:44;;;;;;;23.13;4.07;;;;;;;18.91;34.07;100352.75;4879851;29;20031;-75
2021/03/30 07:48:15;;;;;;;8.50;4.22;;;;;;;20.24;32.75;100343.56;4879922;29;20044;-74
2021/03/30 07:53:56;;;;;;;5.85;3.83;;;;;;;17.96;35.33;100347.19;4877864;29;20040;-73
2021/03/30 07:56:24;;;;;;;5.38;4.07;;;;;;;19.27;34.37;100342.13;4885435;29;20039;-74
2021/03/30 07:58:51;;;;;;;12.05;4.20;;;;;;;20.50;32.73;100340.13;4883351;29;20067;-74
2021/03/30 08:01:22;;;;;;;10.18;4.78;;;;;;;21.42;31.18;100339.50;4878391;29;20044;-74
2021/03/30 08:03:50;;;;;;;8.15;3.88;;;;;;;21.34;31.15;100338.06;4883130;29;20032;-74
2021/03/30 08:06:32;;;;;;;10.48;5.25;;;;;;;19.49;34.54;100343.22;4878133;29;20033;-74
2021/03/30 08:09:04;;;;;;;9.40;4.78;;;;;;;17.43;38.03;100349.19;4878588;29;20435;-74
2021/03/30 08:11:58;;;;;;;8.30;4.68;;;;;;;15.60;41.50;100354.84;4851888;29;20036;-74
2021/03/30 08:14:28;;;;;;;12.77;4.75;;;;;;;16.00;41.18;100349.97;4879679;29;20053;-74
2021/03/30 08:16:56;;;;;;;11.98;4.75;;;;;;;16.08;41.27;100342.88;4871981;29;20103;-74
2021/03/30 08:19:26;;;;;;;8.23;3.95;;;;;;;16.90;38.23;100339.78;4879143;29;20108;-74
2021/03/30 08:22:04;;;;;;;;;;;;;;;18.02;35.80;100335.69;4879509;29;20041;-75
2021/03/30 08:24:45;;;;;;;12.20;4.22;;;;;;;19.84;33.24;100327.31;4880128;29;19971;-74
2021/03/30 08:27:36;;;;;;;10.10;4.22;;;;;;;21.93;30.08;100321.72;4869760;29;20060;-75
2021/03/30 08:30:06;;;;;;;6.53;3.45;;;;;;;21.55;29.67;100326.69;4859177;29;20080;-75
2021/03/30 08:32:33;;;;;;;9.68;4.18;;;;;;;23.87;27.82;100317.66;4842997;29;20028;-75
2021/03/30 08:35:09;;;;;;;7.25;3.63;;;;;;;22.36;28.27;100334.06;4878908;29;20028;-75
2021/03/30 08:37:40;;;;;;;6.70;4.45;;;;;;;25.64;24.46;100327.09;4860213;29;20044;-72
2021/03/30 08:40:35;;;;;;;8.10;4.18;;;;;;;25.70;23.84;100326.75;4852870;29;20028;-72
2021/03/30 08:43:19;;;;;;;9.48;4.40;;;;;;;24.30;25.81;100327.88;4896576;29;20054;-74
2021/03/30 08:45:54;;;;;;;7.82;3.67;;;;;;;25.91;24.59;100323.84;4879012;29;20036;-73
2021/03/30 08:48:31;;;;;;;5.05;3.38;;;;;;;26.78;23.15;100324.94;4878756;29;20032;-75
2021/03/30 08:50:57;;;;;;;10.63;3.90;;;;;;;25.85;23.19;100331.22;4878518;29;20242;-75
2021/03/30 08:53:23;;;;;;;8.80;3.65;;;;;;;25.12;25.23;100327.28;4877954;29;20032;-72
2021/03/30 08:55:48;;;;;;;6.90;3.50;;;;;;;26.51;23.58;100334.59;4875070;29;20474;-72
2021/03/30 08:58:16;;;;;;;14.80;4.22;;;;;;;26.79;23.02;100320.50;4868842;29;20111;-72
2021/03/30 09:00:42;;;;;;;8.93;3.47;;;;;;;26.54;23.68;100334.38;4875117;29;20052;-72
2021/03/30 09:03:09;;;;;;;10.18;4.05;;;;;;;28.64;21.21;100324.63;4877939;29;20140;-72
2021/03/30 09:05:37;;;;;;;7.35;3.70;;;;;;;29.23;20.21;100327.66;4897059;29;20033;-72
2021/03/30 09:08:03;;;;;;;9.63;4.10;;;;;;;27.38;22.29;100326.63;4878379;29;20029;-72
2021/03/30 09:10:29;;;;;;;9.77;3.85;;;;;;;28.89;21.60;100318.47;4878203;29;20039;-72
2021/03/30 09:13:14;;;;;;;9.10;3.92;;;;;;;27.42;22.83;100321.03;4877712;29;20033;-72
2021/03/30 09:15:40;;;;;;;10.15;4.13;;;;;;;30.12;19.78;100321.22;4877895;29;20455;-72
2021/03/30 09:18:05;;;;;;;8.18;3.67;;;;;;;29.87;19.25;100311.50;4897404;29;20057;-72
2021/03/30 09:20:34;;;;;;;6.72;4.15;;;;;;;30.56;19.11;100315.22;4878203;29;20056;-72
2021/03/30 09:23:13;;;;;;;;;;;;;;;28.79;20.84;100304.91;4878844;29;20028;-74
2021/03/30 09:25:41;;;;;;;7.80;4.22;;;;;;;29.09;20.24;100299.25;4877474;29;19926;-75
2021/03/30 09:28:13;;;;;;;8.48;4.05;;;;;;;30.15;19.39;100299.63;4877563;29;20036;-75
2021/03/30 09:30:39;;;;;;;8.55;3.92;;;;;;;32.05;17.25;100295.38;4878109;29;20039;-75
2021/03/30 09:33:04;;;;;;;11.02;5.30;;;;;;;30.86;16.70;100300.47;4877909;29;20025;-75
2021/03/30 09:35:30;;;;;;;7.55;4.43;;;;;;;29.81;18.22;100296.78;4878352;29;20055;-72
2021/03/30 09:37:58;;;;;;;9.90;4.15;;;;;;;30.02;18.16;100298.81;4876124;29;20510;-73
2021/03/30 09:40:29;;;;;;;13.02;4.35;;;;;;;29.24;18.49;100286.63;4877885;29;20029;-75
2021/03/30 09:42:55;;;;;;;10.98;4.40;;;;;;;30.28;18.89;100288.88;4877185;29;20033;-75
2021/03/30 09:45:31;;;;;;;6.82;3.88;;;;;;;32.75;16.40;100278.69;4878898;29;20037;-73
2021/03/30 09:47:59;;;;;;;8.20;3.95;;;;;;;32.43;15.91;100284.97;4876877;29;20084;-75
2021/03/30 09:50:25;;;;;;;7.75;4.45;;;;;;;31.40;17.17;100279.19;4896216;29;20036;-74
2021/03/30 09:52:51;;;;;;;8.50;4.38;;;;;;;31.64;16.37;100275.50;4877237;29;20029;-72
2021/03/30 09:55:31;;;;;;;6.65;4.47;;;;;;;29.16;18.63;100278.34;4877452;29;20555;-72
2021/03/30 09:58:06;;;;;;;9.70;4.95;;;;;;;29.64;18.19;100273.09;4877550;29;20021;-75
2021/03/30 10:00:33;;;;;;;11.07;4.10;;;;;;;30.89;17.41;100274.28;4877678;29;20033;-75
2021/03/30 10:03:00;;;;;;;9.18;4.63;;;;;;;33.16;15.88;100256.25;4877199;29;20112;-75
2021/03/30 10:05:38;;;;;;;11.10;4.85;;;;;;;30.37;16.99;100272.13;4876930;29;20032;-72
2021/03/30 10:08:04;;;;;;;7.38;4.57;;;;;;;30.85;18.07;100256.78;4896705;29;20035;-73
2021/03/30 10:10:43;;;;;;;8.60;4.55;;;;;;;33.23;15.38;100251.22;4877529;29;20499;-74
2021/03/30 10:13:36;;;;;;;7.00;4.70;;;;;;;31.57;15.93;100244.78;4876904;29;20115;-75
2021/03/30 10:16:03;;;;;;;7.80;4.68;;;;;;;33.58;14.49;100241.84;4877794;29;20052;-74
2021/03/30 10:18:29;;;;;;;9.63;4.32;;;;;;;32.86;14.88;100241.00;4877715;29;20025;-72
2021/03/30 10:20:57;;;;;;;7.13;5.03;;;;;;;32.82;15.19;100242.25;4877151;29;20032;-75
2021/03/30 10:23:27;;;;;;;11.95;6.35;;;;;;;32.79;14.98;100237.16;4877532;29;20028;-73
2021/03/30 10:25:53;;;;;;;7.68;4.93;;;;;;;33.84;14.62;100237.59;4876472;29;20072;-73
2021/03/30 10:28:26;;;;;;;9.57;4.88;;;;;;;33.96;14.62;100238.34;4865731;29;20033;-73
2021/03/30 10:30:58;;;;;;;6.82;4.43;;;;;;;33.74;14.87;100229.53;4937037;23;20049;-72
2021/03/30 10:33:39;;;;;;;7.03;4.30;;;;;;;33.63;14.16;100226.13;4888294;29;20044;-72
2021/03/30 10:36:08;;;;;;;10.02;3.33;;;;;;;34.19;13.57;100225.47;4884722;29;20028;-72
2021/03/30 10:38:34;;;;;;;5.20;3.03;;;;;;;35.78;11.65;100218.09;4886233;29;20100;-72
2021/03/30 10:41:05;;;;;;;6.15;2.88;;;;;;;35.69;12.59;100213.66;4887507;29;20032;-72
2021/03/30 10:43:31;;;;;;;7.15;3.58;;;;;;;35.12;13.13;100205.78;4888430;29;20784;-72
2021/03/30 10:45:56;;;;;;;5.97;3.08;;;;;;;34.51;12.44;100207.13;4887980;29;20032;-72
2021/03/30 10:48:21;;;;;;;7.13;3.03;;;;;;;33.81;14.37;100211.00;4887791;29;20040;-72
2021/03/30 10:50:47;;;;;;;12.73;3.63;;;;;;;34.68;12.56;100208.22;4893079;29;20036;-72
2021/03/30 10:53:13;;;;;;;7.18;2.92;;;;;;;35.28;11.74;100199.72;4894302;29;20084;-71
2021/03/30 10:55:40;;;;;;;7.70;4.10;;;;;;;34.27;13.36;100198.66;4894601;29;21095;-71
2021/03/30 10:58:11;;;;;;;4.32;2.88;;;;;;;30.21;15.52;100208.25;4894344;29;21154;-71
2021/03/30 11:00:37;;;;;;;5.15;3.20;;;;;;;28.93;17.57;100198.03;4893519;29;20036;-71
2021/03/30 11:03:04;;;;;;;9.48;2.78;;;;;;;33.47;13.37;100192.59;4894285;29;20028;-71
2021/03/30 11:05:30;;;;;;;5.47;2.80;;;;;;;33.27;13.64;100193.53;4894129;29;20521;-71
2021/03/30 11:07:56;;;;;;;2.40;2.20;;;;;;;33.37;12.66;100188.16;4894003;29;20036;-71
2021/03/30 11:10:22;;;;;;;4.72;2.45;;;;;;;33.17;13.19;100184.56;4894298;29;20039;-71
2021/03/30 11:12:47;;;;;;;4.78;2.50;;;;;;;32.77;13.53;100184.56;4893462;29;20435;-71
2021/03/30 11:15:13;;;;;;;6.35;2.58;;;;;;;33.84;12.35;100194.56;4894143;29;20036;-71
2021/03/30 11:17:39;;;;;;;4.03;2.22;;;;;;;34.15;12.48;100178.31;4894000;29;20040;-71
2021/03/30 11:20:07;;;;;;;7.13;2.70;;;;;;;34.87;11.52;100174.97;4894095;29;20037;-71
2021/03/30 11:22:32;;;;;;;4.57;2.70;;;;;;;34.78;12.19;100170.47;4892749;29;20029;-71
2021/03/30 11:25:01;;;;;;;4.82;2.60;;;;;;;33.75;13.08;100176.59;4889581;29;20190;-71
2021/03/30 11:27:29;;;;;;;3.63;2.38;;;;;;;30.82;15.27;100171.38;4889088;29;20154;-71
2021/03/30 11:30:30;;;;;;;7.40;2.72;;;;;;;33.01;13.55;100160.94;4893445;29;20119;-71
2021/03/30 11:35:17;;;;;;;9.23;2.45;;;;;;;33.31;13.46;100157.31;4893444;29;20394;-71
2021/03/30 11:37:50;;;;;;;5.20;3.25;;;;;;;30.49;15.60;100152.59;4893981;29;20063;-71
2021/03/30 11:40:15;;;;;;;5.88;2.70;;;;;;;28.73;16.87;100158.59;4894357;29;20032;-71
2021/03/30 11:42:41;;;;;;;5.32;2.35;;;;;;;32.60;14.47;100151.16;4893929;29;20028;-71
2021/03/30 11:45:07;;;;;;;2.75;2.55;;;;;;;32.78;14.04;100149.50;4894031;29;20032;-70
2021/03/30 11:47:32;;;;;;;5.53;2.60;;;;;;;33.73;12.85;100155.22;4892500;29;20103;-71
2021/03/30 11:49:58;;;;;;;6.60;2.70;;;;;;;32.92;13.44;100146.47;4893554;29;20043;-71
2021/03/30 11:52:23;;;;;;;3.28;2.45;;;;;;;32.23;14.03;100148.97;4893846;29;20119;-71
2021/03/30 11:54:48;;;;;;;6.57;2.88;;;;;;;32.18;13.51;100140.47;4893933;29;20131;-71
2021/03/30 11:57:14;;;;;;;8.00;2.67;;;;;;;30.77;14.43;100146.78;4893597;29;20205;-71
2021/03/30 11:59:39;;;;;;;5.15;2.60;;;;;;;29.99;15.27;100144.00;4889346;29;20025;-70
2021/03/30 12:02:05;;;;;;;4.20;2.47;;;;;;;33.12;13.27;100135.78;4883610;29;20147;-71
2021/03/30 12:04:31;;;;;;;4.88;2.50;;;;;;;32.00;14.40;100132.16;4884494;29;20047;-71
2021/03/30 12:06:57;;;;;;;6.97;2.45;;;;;;;31.41;14.25;100130.00;4890959;29;20083;-71
2021/03/30 12:09:22;;;;;;;5.85;2.40;;;;;;;33.87;12.13;100126.22;4890552;29;20486;-71
2021/03/30 12:11:48;;;;;;;5.72;2.42;;;;;;;32.19;13.94;100121.53;4890094;29;20043;-70
2021/03/30 12:14:14;;;;;;;3.65;2.67;;;;;;;28.27;16.67;100124.47;4890885;29;20037;-70
2021/03/30 12:16:41;;;;;;;6.30;2.83;;;;;;;27.31;17.48;100121.16;4890428;29;20051;-71
2021/03/30 12:19:06;;;;;;;27.25;19.48;;;;;;;27.58;17.56;100114.97;4890775;29;20056;-71
2021/03/30 12:21:32;;;;;;;9.20;6.80;;;;;;;27.29;18.35;100115.09;4889849;29;20085;-71
2021/03/30 12:23:58;;;;;;;4.70;2.88;;;;;;;26.59;18.52;100109.84;4886615;29;20032;-71
2021/03/30 12:26:23;;;;;;;2.97;2.60;;;;;;;26.34;18.43;100104.28;4889070;29;20032;-71
2021/03/30 12:28:56;;;;;;;4.10;2.80;;;;;;;25.97;19.29;100103.06;5065511;27;20399;-71
2021/03/30 12:31:21;;;;;;;6.20;3.00;;;;;;;25.92;18.77;100097.13;5053254;28;20048;-71
2021/03/30 12:33:47;;;;;;;8.32;3.20;;;;;;;26.08;19.94;100092.63;5052138;28;20051;-71
2021/03/30 12:36:13;;;;;;;4.75;3.08;;;;;;;25.99;18.80;100088.72;5054424;28;20386;-71
2021/03/30 12:38:38;;;;;;;5.32;3.10;;;;;;;25.81;19.34;100095.97;5054100;28;20033;-71
2021/03/30 12:41:03;;;;;;;6.40;2.80;;;;;;;25.39;18.92;100094.03;5054118;28;20255;-71
2021/03/30 12:43:29;;;;;;;6.72;2.90;;;;;;;25.55;19.11;100091.34;5054120;28;20492;-71
2021/03/30 12:45:54;;;;;;;3.25;2.53;;;;;;;25.61;19.34;100099.78;5052437;28;20108;-71
2021/03/30 12:48:19;;;;;;;9.05;3.05;;;;;;;24.77;17.96;100091.34;5054043;28;20678;-71
2021/03/30 12:50:45;;;;;;;7.50;2.97;;;;;;;25.26;18.55;100088.59;5053871;28;20069;-72
2021/03/30 12:53:10;;;;;;;5.70;2.88;;;;;;;25.49;18.84;100089.06;5053526;28;20123;-71
2021/03/30 12:55:35;;;;;;;5.93;3.28;;;;;;;25.52;18.94;100084.41;5052279;28;20025;-71
2021/03/30 12:58:01;;;;;;;5.10;2.78;;;;;;;25.27;18.94;100071.72;5042641;28;20482;-71
2021/03/30 13:00:26;;;;;;;4.20;2.40;;;;;;;25.25;17.69;100080.72;5052237;28;20143;-71
2021/03/30 13:02:52;;;;;;;8.75;3.42;;;;;;;24.31;17.64;100072.59;5052901;28;20078;-71
2021/03/30 13:05:18;;;;;;;4.43;3.05;;;;;;;24.18;18.72;100076.00;5052342;28;20035;-71
2021/03/30 13:07:44;;;;;;;9.93;3.13;;;;;;;23.90;18.69;100060.72;5053127;28;20021;-71
2021/03/30 13:10:10;;;;;;;6.20;3.30;;;;;;;24.12;19.47;100048.03;5052850;28;20025;-71
2021/03/30 13:12:36;;;;;;;5.38;2.60;;;;;;;24.49;17.88;100054.03;5052410;28;20120;-71
2021/03/30 13:15:03;;;;;;;5.40;2.60;;;;;;;25.06;18.38;100049.06;5053159;28;20079;-71
2021/03/30 13:17:28;;;;;;;3.33;2.80;;;;;;;24.97;17.56;100049.56;5053441;28;20033;-71
2021/03/30 13:19:54;;;;;;;5.15;2.58;;;;;;;23.76;18.38;100043.75;5051959;28;20060;-71
2021/03/30 13:22:21;;;;;;;3.83;2.30;;;;;;;23.98;19.21;100037.31;5052542;28;20489;-71
2021/03/30 13:24:47;;;;;;;6.32;3.15;;;;;;;24.32;19.09;100037.25;5053342;28;20163;-71
2021/03/30 13:27:13;;;;;;;6.88;2.90;;;;;;;23.97;18.60;100030.31;5052944;28;20032;-71
2021/03/30 13:29:41;;;;;;;3.20;2.60;;;;;;;24.28;19.28;100030.41;5053039;28;20842;-71
2021/03/30 13:32:08;;;;;;;6.20;2.67;;;;;;;24.40;18.65;100038.63;5051548;28;20025;-71
2021/03/30 13:34:33;;;;;;;5.00;2.15;;;;;;;24.40;19.21;100028.88;5052842;28;20482;-69
2021/03/30 13:36:58;;;;;;;3.13;2.25;;;;;;;24.88;19.52;100025.28;5053173;28;20032;-69
2021/03/30 13:39:24;;;;;;;4.38;2.70;;;;;;;24.95;19.44;100024.94;5044627;28;20037;-69
2021/03/30 13:41:56;;;;;;;5.60;2.40;;;;;;;24.98;18.13;100024.75;5038502;28;20090;-69
2021/03/30 13:44:24;;;;;;;7.85;2.22;;;;;;;24.81;17.74;100028.38;5038467;28;20025;-71
2021/03/30 13:46:49;;;;;;;5.32;2.55;;;;;;;24.76;17.68;100020.69;5039747;28;20025;-71
2021/03/30 13:49:16;;;;;;;2.83;2.50;;;;;;;24.11;18.36;100009.25;5039793;28;20032;-72
2021/03/30 13:51:43;;;;;;;5.13;2.25;;;;;;;24.56;17.77;100008.56;5039644;28;20029;-72
2021/03/30 13:54:08;;;;;;;2.72;1.92;;;;;;;24.89;18.14;100010.22;5039207;28;20036;-72
2021/03/30 13:56:33;;;;;;;3.05;2.17;;;;;;;25.20;17.42;100004.03;5038930;28;20021;-70
2021/03/30 13:58:59;;;;;;;7.35;2.33;;;;;;;25.32;16.30;99995.34;5039394;28;20120;-72
2021/03/30 14:01:24;;;;;;;5.50;2.80;;;;;;;24.88;16.22;99997.91;5039459;28;20033;-72
2021/03/30 14:03:49;;;;;;;3.30;2.45;;;;;;;24.98;16.37;99987.63;5039217;28;20072;-72
2021/03/30 14:06:15;;;;;;;5.93;2.67;;;;;;;24.58;16.64;100003.16;5038621;28;20060;-72
2021/03/30 14:08:40;;;;;;;10.05;2.72;;;;;;;24.55;17.21;99990.06;5021046;28;20028;-72
2021/03/30 14:11:05;;;;;;;3.63;2.28;;;;;;;24.82;17.61;99983.22;5038845;28;20063;-72
2021/03/30 14:13:38;;;;;;;2.83;2.33;;;;;;;24.64;18.37;99984.25;5039562;28;20057;-72
2021/03/30 14:16:10;;;;;;;4.78;2.78;;;;;;;24.94;17.65;99983.44;5039087;28;20400;-71
2021/03/30 14:21:09;;;;;;;6.30;2.30;;;;;;;24.34;16.78;99971.75;5025284;28;20117;-71
2021/03/30 14:23:50;;;;;;;6.30;2.60;;;;;;;24.61;17.51;99968.53;5034632;28;20025;-72
2021/03/30 14:26:29;;;;;;;6.00;2.90;;;;;;;24.48;18.07;99973.69;5031348;28;20025;-72
2021/03/30 14:28:54;;;;;;;;;;;;;;;24.38;17.71;99966.34;5038689;28;20040;-72
2021/03/30 14:31:22;;;;;;;9.93;3.00;;;;;;;24.38;17.59;99958.38;5037850;28;20274;-72
2021/03/30 14:33:48;;;;;;;6.50;2.60;;;;;;;24.31;18.19;99956.03;5038478;28;20308;-72
2021/03/30 14:36:14;;;;;;;3.13;2.40;;;;;;;24.65;18.13;99954.16;5038775;28;20025;-72
2021/03/30 14:38:42;;;;;;;5.72;2.20;;;;;;;24.91;18.02;99949.16;5038388;28;20074;-72
2021/03/30 14:41:08;;;;;;;7.60;2.88;;;;;;;24.45;18.29;99946.50;5037979;28;20084;-72
2021/03/30 14:43:47;;;;;;;5.78;2.30;;;;;;;24.35;18.70;99952.28;5037902;28;20020;-72
2021/03/30 14:53:55;;;;;;;5.28;2.50;;;;;;;23.11;19.37;99939.47;5032226;28;20447;-72
2021/03/30 14:56:24;;;;;;;5.97;2.70;;;;;;;23.02;19.96;99939.97;5037084;28;20152;-72
2021/03/30 14:59:10;;;;;;;7.60;2.88;;;;;;;22.83;20.36;99932.94;5037834;28;20026;-72
2021/03/30 15:04:18;;;;;;;6.53;2.10;;;;;;;22.95;20.40;99926.19;5037017;28;20598;-72
2021/03/30 15:06:44;;;;;;;7.50;2.88;;;;;;;22.97;19.91;99920.84;5037046;28;20033;-72
2021/03/30 15:09:09;;;;;;;7.47;2.63;;;;;;;23.13;20.55;99913.84;5037534;28;20033;-72
2021/03/30 15:11:35;;;;;;;3.70;2.20;;;;;;;23.21;20.42;99919.59;5036641;28;20037;-72
2021/03/30 15:14:00;;;;;;;3.78;2.00;;;;;;;23.39;20.97;99906.34;5037878;28;20083;-72
2021/03/30 15:16:25;;;;;;;3.20;2.40;;;;;;;23.35;20.48;99910.91;5037625;28;20143;-72
2021/03/30 15:18:51;;;;;;;7.63;2.50;;;;;;;23.58;19.98;99912.34;5037914;28;20132;-72
2021/03/30 15:21:17;;;;;;;3.22;2.22;;;;;;;23.58;19.89;99907.06;5037650;28;20079;-71
2021/03/30 15:23:42;;;;;;;5.68;2.33;;;;;;;23.73;19.73;99906.25;5037939;28;20075;-71
2021/03/30 15:26:07;;;;;;;3.95;2.30;;;;;;;24.21;18.80;99907.16;5038122;28;21111;-71
2021/03/30 15:28:33;;;;;;;11.93;8.05;;;;;;;23.96;19.03;99901.53;5037611;28;20025;-71
2021/03/30 15:30:58;;;;;;;4.32;2.03;;;;;;;24.14;19.71;99900.50;5037704;28;20039;-71
2021/03/30 15:33:23;;;;;;;7.13;2.30;;;;;;;24.01;19.86;99907.41;5037530;28;20068;-72
2021/03/30 15:35:49;;;;;;;5.97;2.53;;;;;;;24.03;19.35;99903.75;5037547;28;20028;-71
2021/03/30 15:38:14;;;;;;;3.50;1.92;;;;;;;23.97;20.35;99901.44;5037397;28;20525;-71
2021/03/30 15:40:40;;;;;;;3.08;2.20;;;;;;;23.79;20.21;99898.00;5037564;28;20078;-71
2021/03/30 15:43:08;;;;;;;5.22;2.65;;;;;;;23.79;19.91;99898.00;5037399;28;20390;-71
2021/03/30 15:48:03;;;;;;;7.30;2.45;;;;;;;23.59;19.80;99890.25;5036298;28;20021;-72
2021/03/30 15:50:29;;;;;;;6.90;2.30;;;;;;;23.28;20.07;99894.53;5035589;28;20030;-71
2021/03/30 15:52:54;;;;;;;4.75;2.63;;;;;;;23.52;20.42;99887.09;5036959;28;20044;-71
2021/03/30 15:55:20;;;;;;;6.45;2.58;;;;;;;23.51;20.56;99880.09;5037057;28;20037;-73
2021/03/30 15:57:48;;;;;;;10.48;3.63;;;;;;;23.53;20.44;99888.78;5036813;28;20036;-72
2021/03/30 16:00:18;;;;;;;13.30;3.60;;;;;;;23.57;20.21;99884.19;5037116;28;20035;-72
2021/03/30 16:02:46;;;;;;;3.90;2.55;;;;;;;23.57;20.98;99884.19;5036553;28;20025;-72
2021/03/30 16:05:14;;;;;;;5.57;3.08;;;;;;;23.70;20.42;99880.00;5036869;28;20052;-71
2021/03/30 16:07:40;;;;;;;7.63;2.70;;;;;;;23.55;19.78;99875.50;5036972;28;20492;-72
2021/03/30 16:10:06;;;;;;;7.75;2.55;;;;;;;23.68;19.69;99876.56;5036772;28;20036;-72
2021/03/30 16:12:32;;;;;;;5.45;2.47;;;;;;;23.68;19.72;99875.69;5036628;28;20414;-72